sensor_id;sensor_type;location;lat;lon;timestamp;P1;durP1;ratioP1;P2;durP2;ratioP2
3359;SDS011;1693;49.602;11.046;2022-11-14T00:01:11;35.47;;;25.80;;
3359;SDS011;1693;49.602;11.046;2022-11-14T00:03:38;33.50;;;24.00;;
3359;SDS011;1693;49.602;11.046;2022-11-14T00:06:07;30.33;;;23.00;;
3359;SDS011;1693;49.602;11.046;2022-11-14T00:08:36;35.60;;;24.00;;
3359;SDS011;1693;49.602;11.046;2022-11-14T00:11:04;37.00;;;24.57;;
3359;SDS011;1693;49.602;11.046;2022-11-14T00:13:31;38.40;;;26.73;;
3359;SDS011;1693;49.602;11.046;2022-11-14T00:15:58;32.03;;;23.57;;
3359;SDS011;1693;49.602;11.046;2022-11-14T00:18:27;33.90;;;26.00;;
3359;SDS011;1693;49.602;11.046;2022-11-14T00:20:55;30.73;;;22.47;;
3359;SDS011;1693;49.602;11.046;2022-11-14T00:23:24;31.80;;;22.33;;
3359;SDS011;1693;49.602;11.046;2022-11-14T00:25:52;32.63;;;22.80;;
3359;SDS011;1693;49.602;11.046;2022-11-14T00:28:22;29.70;;;21.37;;
3359;SDS011;1693;49.602;11.046;2022-11-14T00:30:49;36.30;;;24.00;;
3359;SDS011;1693;49.602;11.046;2022-11-14T00:33:17;30.10;;;23.37;;
3359;SDS011;1693;49.602;11.046;2022-11-14T00:35:51;32.20;;;23.97;;
3359;SDS011;1693;49.602;11.046;2022-11-14T00:38:19;33.27;;;24.03;;
3359;SDS011;1693;49.602;11.046;2022-11-14T00:40:47;36.17;;;23.87;;
3359;SDS011;1693;49.602;11.046;2022-11-14T00:43:16;31.50;;;23.80;;
3359;SDS011;1693;49.602;11.046;2022-11-14T00:45:43;34.30;;;23.60;;
3359;SDS011;1693;49.602;11.046;2022-11-14T00:48:12;39.97;;;25.87;;
3359;SDS011;1693;49.602;11.046;2022-11-14T00:50:41;34.53;;;23.37;;
3359;SDS011;1693;49.602;11.046;2022-11-14T00:53:11;33.70;;;24.17;;
3359;SDS011;1693;49.602;11.046;2022-11-14T00:55:41;31.80;;;22.23;;
3359;SDS011;1693;49.602;11.046;2022-11-14T00:58:08;32.53;;;25.13;;
3359;SDS011;1693;49.602;11.046;2022-11-14T01:00:36;36.70;;;25.47;;
3359;SDS011;1693;49.602;11.046;2022-11-14T01:03:03;35.60;;;24.13;;
3359;SDS011;1693;49.602;11.046;2022-11-14T01:05:32;38.07;;;25.20;;
3359;SDS011;1693;49.602;11.046;2022-11-14T01:08:00;42.53;;;26.00;;
3359;SDS011;1693;49.602;11.046;2022-11-14T01:10:29;40.10;;;25.13;;
3359;SDS011;1693;49.602;11.046;2022-11-14T01:12:58;34.37;;;25.00;;
3359;SDS011;1693;49.602;11.046;2022-11-14T01:15:26;39.43;;;24.60;;
3359;SDS011;1693;49.602;11.046;2022-11-14T01:17:55;34.13;;;25.70;;
3359;SDS011;1693;49.602;11.046;2022-11-14T01:20:23;36.93;;;25.90;;
3359;SDS011;1693;49.602;11.046;2022-11-14T01:22:50;39.07;;;25.30;;
3359;SDS011;1693;49.602;11.046;2022-11-14T01:25:18;36.60;;;26.60;;
3359;SDS011;1693;49.602;11.046;2022-11-14T01:27:46;31.50;;;23.50;;
3359;SDS011;1693;49.602;11.046;2022-11-14T01:30:15;37.43;;;25.60;;
3359;SDS011;1693;49.602;11.046;2022-11-14T01:32:42;33.70;;;25.77;;
3359;SDS011;1693;49.602;11.046;2022-11-14T01:35:10;30.30;;;23.20;;
3359;SDS011;1693;49.602;11.046;2022-11-14T01:37:38;40.73;;;26.93;;
3359;SDS011;1693;49.602;11.046;2022-11-14T01:40:06;37.00;;;24.13;;
3359;SDS011;1693;49.602;11.046;2022-11-14T01:42:35;32.63;;;22.97;;
3359;SDS011;1693;49.602;11.046;2022-11-14T01:48:13;38.77;;;23.53;;
3359;SDS011;1693;49.602;11.046;2022-11-14T01:50:48;34.27;;;24.90;;
3359;SDS011;1693;49.602;11.046;2022-11-14T01:53:21;36.40;;;24.77;;
3359;SDS011;1693;49.602;11.046;2022-11-14T01:55:48;37.13;;;23.80;;
3359;SDS011;1693;49.602;11.046;2022-11-14T01:58:16;36.53;;;24.07;;
3359;SDS011;1693;49.602;11.046;2022-11-14T02:00:47;43.10;;;24.63;;
3359;SDS011;1693;49.602;11.046;2022-11-14T02:03:17;31.97;;;24.93;;
3359;SDS011;1693;49.602;11.046;2022-11-14T02:05:46;38.07;;;25.87;;
3359;SDS011;1693;49.602;11.046;2022-11-14T02:08:14;35.17;;;23.90;;
3359;SDS011;1693;49.602;11.046;2022-11-14T02:10:43;38.03;;;24.93;;
3359;SDS011;1693;49.602;11.046;2022-11-14T02:13:11;41.77;;;25.53;;
3359;SDS011;1693;49.602;11.046;2022-11-14T02:15:40;35.07;;;24.43;;
3359;SDS011;1693;49.602;11.046;2022-11-14T02:18:08;35.93;;;25.63;;
3359;SDS011;1693;49.602;11.046;2022-11-14T02:20:38;38.13;;;25.03;;
3359;SDS011;1693;49.602;11.046;2022-11-14T02:23:09;35.87;;;25.97;;
3359;SDS011;1693;49.602;11.046;2022-11-14T02:25:38;36.00;;;24.27;;
3359;SDS011;1693;49.602;11.046;2022-11-14T02:28:07;33.03;;;22.93;;
3359;SDS011;1693;49.602;11.046;2022-11-14T02:30:35;35.47;;;24.97;;
3359;SDS011;1693;49.602;11.046;2022-11-14T02:33:04;30.50;;;24.33;;
3359;SDS011;1693;49.602;11.046;2022-11-14T02:35:31;37.03;;;25.20;;
3359;SDS011;1693;49.602;11.046;2022-11-14T02:38:01;34.57;;;24.47;;
3359;SDS011;1693;49.602;11.046;2022-11-14T02:40:31;32.67;;;24.47;;
3359;SDS011;1693;49.602;11.046;2022-11-14T02:42:59;41.13;;;27.57;;
3359;SDS011;1693;49.602;11.046;2022-11-14T02:45:28;36.67;;;25.23;;
3359;SDS011;1693;49.602;11.046;2022-11-14T02:47:57;37.73;;;22.83;;
3359;SDS011;1693;49.602;11.046;2022-11-14T02:50:24;36.47;;;29.17;;
3359;SDS011;1693;49.602;11.046;2022-11-14T02:52:52;43.77;;;31.00;;
3359;SDS011;1693;49.602;11.046;2022-11-14T02:55:22;47.53;;;32.20;;
3359;SDS011;1693;49.602;11.046;2022-11-14T02:57:51;44.17;;;30.77;;
3359;SDS011;1693;49.602;11.046;2022-11-14T03:00:19;57.90;;;35.03;;
3359;SDS011;1693;49.602;11.046;2022-11-14T03:02:46;56.60;;;35.73;;
3359;SDS011;1693;49.602;11.046;2022-11-14T03:05:15;50.00;;;34.77;;
3359;SDS011;1693;49.602;11.046;2022-11-14T03:07:42;53.50;;;36.03;;
3359;SDS011;1693;49.602;11.046;2022-11-14T03:10:10;62.37;;;36.50;;
3359;SDS011;1693;49.602;11.046;2022-11-14T03:12:43;65.73;;;39.33;;
3359;SDS011;1693;49.602;11.046;2022-11-14T03:15:11;68.40;;;40.60;;
3359;SDS011;1693;49.602;11.046;2022-11-14T03:17:38;69.27;;;42.37;;
3359;SDS011;1693;49.602;11.046;2022-11-14T03:20:07;70.60;;;43.90;;
3359;SDS011;1693;49.602;11.046;2022-11-14T03:22:35;64.50;;;43.93;;
3359;SDS011;1693;49.602;11.046;2022-11-14T03:25:05;67.63;;;44.00;;
3359;SDS011;1693;49.602;11.046;2022-11-14T03:27:34;58.60;;;41.30;;
3359;SDS011;1693;49.602;11.046;2022-11-14T03:30:03;62.50;;;43.33;;
3359;SDS011;1693;49.602;11.046;2022-11-14T03:32:32;63.23;;;37.87;;
3359;SDS011;1693;49.602;11.046;2022-11-14T03:35:00;71.37;;;40.93;;
3359;SDS011;1693;49.602;11.046;2022-11-14T03:37:28;72.37;;;42.40;;
3359;SDS011;1693;49.602;11.046;2022-11-14T03:39:56;55.53;;;38.23;;
3359;SDS011;1693;49.602;11.046;2022-11-14T03:42:25;62.93;;;39.00;;
3359;SDS011;1693;49.602;11.046;2022-11-14T03:44:52;57.73;;;38.57;;
3359;SDS011;1693;49.602;11.046;2022-11-14T03:47:23;59.53;;;39.33;;
3359;SDS011;1693;49.602;11.046;2022-11-14T03:49:50;73.70;;;36.93;;
3359;SDS011;1693;49.602;11.046;2022-11-14T03:52:19;56.93;;;35.83;;
3359;SDS011;1693;49.602;11.046;2022-11-14T03:54:47;58.20;;;37.50;;
3359;SDS011;1693;49.602;11.046;2022-11-14T03:57:16;54.93;;;37.10;;
3359;SDS011;1693;49.602;11.046;2022-11-14T03:59:43;51.57;;;35.97;;
3359;SDS011;1693;49.602;11.046;2022-11-14T04:02:10;50.30;;;34.67;;
3359;SDS011;1693;49.602;11.046;2022-11-14T04:04:38;54.20;;;34.80;;
3359;SDS011;1693;49.602;11.046;2022-11-14T04:07:05;43.27;;;30.87;;
3359;SDS011;1693;49.602;11.046;2022-11-14T04:09:35;45.53;;;32.37;;
3359;SDS011;1693;49.602;11.046;2022-11-14T04:12:04;42.90;;;31.07;;
3359;SDS011;1693;49.602;11.046;2022-11-14T04:14:31;46.30;;;31.00;;
3359;SDS011;1693;49.602;11.046;2022-11-14T04:16:59;45.30;;;30.57;;
3359;SDS011;1693;49.602;11.046;2022-11-14T04:19:26;43.70;;;30.10;;
3359;SDS011;1693;49.602;11.046;2022-11-14T04:21:56;40.50;;;31.07;;
3359;SDS011;1693;49.602;11.046;2022-11-14T04:24:24;47.13;;;34.00;;
3359;SDS011;1693;49.602;11.046;2022-11-14T04:26:52;41.90;;;30.37;;
3359;SDS011;1693;49.602;11.046;2022-11-14T04:29:21;43.50;;;30.60;;
3359;SDS011;1693;49.602;11.046;2022-11-14T04:31:48;38.83;;;29.07;;
3359;SDS011;1693;49.602;11.046;2022-11-14T04:34:16;42.33;;;31.10;;
3359;SDS011;1693;49.602;11.046;2022-11-14T04:36:44;46.63;;;31.67;;
3359;SDS011;1693;49.602;11.046;2022-11-14T04:39:14;50.67;;;33.00;;
3359;SDS011;1693;49.602;11.046;2022-11-14T04:41:42;42.80;;;29.57;;
3359;SDS011;1693;49.602;11.046;2022-11-14T04:44:10;39.77;;;30.57;;
3359;SDS011;1693;49.602;11.046;2022-11-14T04:46:37;46.30;;;31.87;;
3359;SDS011;1693;49.602;11.046;2022-11-14T04:49:04;45.20;;;30.00;;
3359;SDS011;1693;49.602;11.046;2022-11-14T04:51:31;40.50;;;28.47;;
3359;SDS011;1693;49.602;11.046;2022-11-14T04:53:59;41.60;;;28.60;;
3359;SDS011;1693;49.602;11.046;2022-11-14T04:56:29;35.90;;;26.67;;
3359;SDS011;1693;49.602;11.046;2022-11-14T04:58:57;36.63;;;26.27;;
3359;SDS011;1693;49.602;11.046;2022-11-14T05:01:25;36.67;;;26.90;;
3359;SDS011;1693;49.602;11.046;2022-11-14T05:03:53;38.23;;;28.03;;
3359;SDS011;1693;49.602;11.046;2022-11-14T05:06:22;38.60;;;29.23;;
3359;SDS011;1693;49.602;11.046;2022-11-14T05:08:51;42.83;;;28.23;;
3359;SDS011;1693;49.602;11.046;2022-11-14T05:11:18;40.23;;;27.90;;
3359;SDS011;1693;49.602;11.046;2022-11-14T05:13:47;38.60;;;27.00;;
3359;SDS011;1693;49.602;11.046;2022-11-14T05:16:15;36.80;;;27.90;;
3359;SDS011;1693;49.602;11.046;2022-11-14T05:18:43;35.90;;;28.30;;
3359;SDS011;1693;49.602;11.046;2022-11-14T05:21:10;43.17;;;29.40;;
3359;SDS011;1693;49.602;11.046;2022-11-14T05:23:39;38.60;;;26.97;;
3359;SDS011;1693;49.602;11.046;2022-11-14T05:26:07;42.07;;;30.40;;
3359;SDS011;1693;49.602;11.046;2022-11-14T05:28:35;37.13;;;27.77;;
3359;SDS011;1693;49.602;11.046;2022-11-14T05:31:04;41.10;;;28.03;;
3359;SDS011;1693;49.602;11.046;2022-11-14T05:33:33;36.60;;;27.37;;
3359;SDS011;1693;49.602;11.046;2022-11-14T05:36:01;40.30;;;28.83;;
3359;SDS011;1693;49.602;11.046;2022-11-14T05:38:29;35.03;;;25.30;;
3359;SDS011;1693;49.602;11.046;2022-11-14T05:40:56;45.27;;;28.77;;
3359;SDS011;1693;49.602;11.046;2022-11-14T05:43:23;43.90;;;29.27;;
3359;SDS011;1693;49.602;11.046;2022-11-14T05:45:51;41.83;;;28.30;;
3359;SDS011;1693;49.602;11.046;2022-11-14T05:48:19;36.60;;;27.50;;
3359;SDS011;1693;49.602;11.046;2022-11-14T05:50:46;35.20;;;25.47;;
3359;SDS011;1693;49.602;11.046;2022-11-14T05:53:15;46.40;;;29.90;;
3359;SDS011;1693;49.602;11.046;2022-11-14T05:55:42;38.47;;;27.70;;
3359;SDS011;1693;49.602;11.046;2022-11-14T05:58:14;38.50;;;28.70;;
3359;SDS011;1693;49.602;11.046;2022-11-14T06:00:43;36.90;;;27.97;;
3359;SDS011;1693;49.602;11.046;2022-11-14T06:03:11;42.47;;;29.07;;
3359;SDS011;1693;49.602;11.046;2022-11-14T06:05:40;35.63;;;26.50;;
3359;SDS011;1693;49.602;11.046;2022-11-14T06:08:09;35.63;;;25.90;;
3359;SDS011;1693;49.602;11.046;2022-11-14T06:10:36;41.83;;;26.87;;
3359;SDS011;1693;49.602;11.046;2022-11-14T06:13:04;34.50;;;27.00;;
3359;SDS011;1693;49.602;11.046;2022-11-14T06:15:33;32.80;;;24.47;;
3359;SDS011;1693;49.602;11.046;2022-11-14T06:18:03;35.43;;;27.40;;
3359;SDS011;1693;49.602;11.046;2022-11-14T06:20:30;40.80;;;26.50;;
3359;SDS011;1693;49.602;11.046;2022-11-14T06:22:58;34.23;;;25.20;;
3359;SDS011;1693;49.602;11.046;2022-11-14T06:25:25;33.47;;;25.67;;
3359;SDS011;1693;49.602;11.046;2022-11-14T06:27:54;36.67;;;26.57;;
3359;SDS011;1693;49.602;11.046;2022-11-14T06:30:22;44.90;;;33.10;;
3359;SDS011;1693;49.602;11.046;2022-11-14T06:32:55;41.93;;;28.43;;
3359;SDS011;1693;49.602;11.046;2022-11-14T06:35:24;29.53;;;22.40;;
3359;SDS011;1693;49.602;11.046;2022-11-14T06:37:53;39.53;;;26.00;;
3359;SDS011;1693;49.602;11.046;2022-11-14T06:40:22;35.90;;;24.40;;
3359;SDS011;1693;49.602;11.046;2022-11-14T06:42:53;33.37;;;23.57;;
3359;SDS011;1693;49.602;11.046;2022-11-14T06:45:22;31.17;;;23.57;;
3359;SDS011;1693;49.602;11.046;2022-11-14T06:47:50;32.97;;;25.27;;
3359;SDS011;1693;49.602;11.046;2022-11-14T06:50:18;31.77;;;24.43;;
3359;SDS011;1693;49.602;11.046;2022-11-14T06:52:46;32.27;;;24.40;;
3359;SDS011;1693;49.602;11.046;2022-11-14T06:55:14;32.40;;;23.37;;
3359;SDS011;1693;49.602;11.046;2022-11-14T06:57:44;26.80;;;21.37;;
3359;SDS011;1693;49.602;11.046;2022-11-14T07:00:18;29.00;;;21.70;;
3359;SDS011;1693;49.602;11.046;2022-11-14T07:02:47;28.47;;;22.47;;
3359;SDS011;1693;49.602;11.046;2022-11-14T07:05:15;29.47;;;20.93;;
3359;SDS011;1693;49.602;11.046;2022-11-14T07:07:42;28.00;;;21.97;;
3359;SDS011;1693;49.602;11.046;2022-11-14T07:10:09;26.00;;;21.67;;
3359;SDS011;1693;49.602;11.046;2022-11-14T07:12:38;23.57;;;20.60;;
3359;SDS011;1693;49.602;11.046;2022-11-14T07:15:08;32.47;;;20.97;;
3359;SDS011;1693;49.602;11.046;2022-11-14T07:17:37;30.73;;;20.20;;
3359;SDS011;1693;49.602;11.046;2022-11-14T07:20:05;26.07;;;20.50;;
3359;SDS011;1693;49.602;11.046;2022-11-14T07:22:33;24.83;;;20.37;;
3359;SDS011;1693;49.602;11.046;2022-11-14T07:25:00;27.30;;;21.40;;
3359;SDS011;1693;49.602;11.046;2022-11-14T07:27:29;24.27;;;19.00;;
3359;SDS011;1693;49.602;11.046;2022-11-14T07:29:57;24.03;;;20.37;;
3359;SDS011;1693;49.602;11.046;2022-11-14T07:32:27;21.60;;;18.47;;
3359;SDS011;1693;49.602;11.046;2022-11-14T07:37:39;24.20;;;19.40;;
3359;SDS011;1693;49.602;11.046;2022-11-14T07:40:07;22.50;;;18.23;;
3359;SDS011;1693;49.602;11.046;2022-11-14T07:42:35;20.87;;;18.00;;
3359;SDS011;1693;49.602;11.046;2022-11-14T07:45:04;24.93;;;17.40;;
3359;SDS011;1693;49.602;11.046;2022-11-14T07:47:34;21.30;;;16.60;;
3359;SDS011;1693;49.602;11.046;2022-11-14T07:50:02;20.37;;;18.17;;
3359;SDS011;1693;49.602;11.046;2022-11-14T07:52:29;22.47;;;16.13;;
3359;SDS011;1693;49.602;11.046;2022-11-14T07:54:57;19.63;;;16.83;;
3359;SDS011;1693;49.602;11.046;2022-11-14T07:57:24;19.33;;;16.67;;
3359;SDS011;1693;49.602;11.046;2022-11-14T07:59:52;22.10;;;17.50;;
3359;SDS011;1693;49.602;11.046;2022-11-14T08:02:21;22.73;;;18.10;;
3359;SDS011;1693;49.602;11.046;2022-11-14T08:04:50;23.07;;;17.30;;
3359;SDS011;1693;49.602;11.046;2022-11-14T08:07:17;20.97;;;16.80;;
3359;SDS011;1693;49.602;11.046;2022-11-14T08:09:45;22.20;;;18.00;;
3359;SDS011;1693;49.602;11.046;2022-11-14T08:12:12;21.47;;;17.47;;
3359;SDS011;1693;49.602;11.046;2022-11-14T08:14:40;19.17;;;15.57;;
3359;SDS011;1693;49.602;11.046;2022-11-14T08:17:08;18.87;;;16.17;;
3359;SDS011;1693;49.602;11.046;2022-11-14T08:19:37;17.83;;;15.67;;
3359;SDS011;1693;49.602;11.046;2022-11-14T08:22:07;19.57;;;15.20;;
3359;SDS011;1693;49.602;11.046;2022-11-14T08:24:35;16.90;;;15.10;;
3359;SDS011;1693;49.602;11.046;2022-11-14T08:27:02;17.13;;;15.27;;
3359;SDS011;1693;49.602;11.046;2022-11-14T08:29:30;17.67;;;15.00;;
3359;SDS011;1693;49.602;11.046;2022-11-14T08:31:58;15.77;;;14.13;;
3359;SDS011;1693;49.602;11.046;2022-11-14T08:34:27;17.37;;;14.90;;
3359;SDS011;1693;49.602;11.046;2022-11-14T08:36:55;19.30;;;14.80;;
3359;SDS011;1693;49.602;11.046;2022-11-14T08:39:24;15.83;;;14.17;;
3359;SDS011;1693;49.602;11.046;2022-11-14T08:41:51;17.83;;;13.93;;
3359;SDS011;1693;49.602;11.046;2022-11-14T08:44:18;16.33;;;14.20;;
3359;SDS011;1693;49.602;11.046;2022-11-14T08:46:48;17.97;;;14.17;;
3359;SDS011;1693;49.602;11.046;2022-11-14T08:49:17;16.77;;;15.07;;
3359;SDS011;1693;49.602;11.046;2022-11-14T08:51:49;17.60;;;12.30;;
3359;SDS011;1693;49.602;11.046;2022-11-14T08:54:40;19.70;;;13.50;;
3359;SDS011;1693;49.602;11.046;2022-11-14T08:57:09;14.97;;;13.20;;
3359;SDS011;1693;49.602;11.046;2022-11-14T08:59:41;14.70;;;12.60;;
3359;SDS011;1693;49.602;11.046;2022-11-14T09:02:09;15.83;;;12.33;;
3359;SDS011;1693;49.602;11.046;2022-11-14T09:04:36;14.67;;;13.00;;
3359;SDS011;1693;49.602;11.046;2022-11-14T09:07:04;14.47;;;12.83;;
3359;SDS011;1693;49.602;11.046;2022-11-14T09:09:31;13.87;;;12.20;;
3359;SDS011;1693;49.602;11.046;2022-11-14T09:12:01;16.57;;;12.77;;
3359;SDS011;1693;49.602;11.046;2022-11-14T09:14:29;15.17;;;12.03;;
3359;SDS011;1693;49.602;11.046;2022-11-14T09:16:59;12.30;;;10.20;;
3359;SDS011;1693;49.602;11.046;2022-11-14T09:19:27;14.20;;;12.70;;
3359;SDS011;1693;49.602;11.046;2022-11-14T09:21:55;14.23;;;12.03;;
3359;SDS011;1693;49.602;11.046;2022-11-14T09:24:23;11.67;;;10.37;;
3359;SDS011;1693;49.602;11.046;2022-11-14T09:26:51;13.10;;;10.87;;
3359;SDS011;1693;49.602;11.046;2022-11-14T09:29:20;11.97;;;10.87;;
3359;SDS011;1693;49.602;11.046;2022-11-14T09:31:48;16.10;;;10.27;;
3359;SDS011;1693;49.602;11.046;2022-11-14T09:34:22;14.20;;;10.20;;
3359;SDS011;1693;49.602;11.046;2022-11-14T09:36:52;10.93;;;9.73;;
3359;SDS011;1693;49.602;11.046;2022-11-14T09:39:21;12.70;;;10.00;;
3359;SDS011;1693;49.602;11.046;2022-11-14T09:41:52;11.27;;;9.10;;
3359;SDS011;1693;49.602;11.046;2022-11-14T09:44:39;10.33;;;8.43;;
3359;SDS011;1693;49.602;11.046;2022-11-14T09:47:25;9.97;;;8.13;;
3359;SDS011;1693;49.602;11.046;2022-11-14T09:49:59;8.70;;;7.73;;
3359;SDS011;1693;49.602;11.046;2022-11-14T09:52:37;9.27;;;7.83;;
3359;SDS011;1693;49.602;11.046;2022-11-14T09:58:47;7.20;;;5.70;;
3359;SDS011;1693;49.602;11.046;2022-11-14T10:01:19;9.47;;;8.20;;
3359;SDS011;1693;49.602;11.046;2022-11-14T10:04:08;8.40;;;6.23;;
3359;SDS011;1693;49.602;11.046;2022-11-14T10:06:41;8.83;;;6.93;;
3359;SDS011;1693;49.602;11.046;2022-11-14T10:15:57;6.73;;;5.37;;
3359;SDS011;1693;49.602;11.046;2022-11-14T10:18:37;8.07;;;5.80;;
3359;SDS011;1693;49.602;11.046;2022-11-14T10:21:23;6.17;;;5.30;;
3359;SDS011;1693;49.602;11.046;2022-11-14T10:24:35;7.17;;;6.40;;
3359;SDS011;1693;49.602;11.046;2022-11-14T10:27:18;8.80;;;5.80;;
3359;SDS011;1693;49.602;11.046;2022-11-14T10:32:43;5.70;;;5.10;;
3359;SDS011;1693;49.602;11.046;2022-11-14T10:35:26;5.93;;;4.87;;
3359;SDS011;1693;49.602;11.046;2022-11-14T10:38:00;6.67;;;5.97;;
3359;SDS011;1693;49.602;11.046;2022-11-14T10:40:37;6.30;;;5.40;;
3359;SDS011;1693;49.602;11.046;2022-11-14T10:43:12;5.50;;;5.00;;
3359;SDS011;1693;49.602;11.046;2022-11-14T10:45:52;9.70;;;5.00;;
3359;SDS011;1693;49.602;11.046;2022-11-14T10:48:29;8.53;;;4.63;;
3359;SDS011;1693;49.602;11.046;2022-11-14T10:51:02;4.83;;;4.30;;
3359;SDS011;1693;49.602;11.046;2022-11-14T10:53:44;4.90;;;4.10;;
3359;SDS011;1693;49.602;11.046;2022-11-14T10:56:17;4.10;;;3.70;;
3359;SDS011;1693;49.602;11.046;2022-11-14T10:58:44;6.50;;;4.53;;
3359;SDS011;1693;49.602;11.046;2022-11-14T11:06:53;4.00;;;3.20;;
3359;SDS011;1693;49.602;11.046;2022-11-14T11:09:26;4.90;;;4.07;;
3359;SDS011;1693;49.602;11.046;2022-11-14T11:12:16;6.87;;;5.27;;
3359;SDS011;1693;49.602;11.046;2022-11-14T11:14:48;3.50;;;2.80;;
3359;SDS011;1693;49.602;11.046;2022-11-14T11:17:33;4.17;;;3.17;;
3359;SDS011;1693;49.602;11.046;2022-11-14T11:20:19;3.50;;;2.97;;
3359;SDS011;1693;49.602;11.046;2022-11-14T11:23:02;3.17;;;2.83;;
3359;SDS011;1693;49.602;11.046;2022-11-14T11:25:32;5.13;;;3.17;;
3359;SDS011;1693;49.602;11.046;2022-11-14T11:28:03;4.23;;;3.60;;
3359;SDS011;1693;49.602;11.046;2022-11-14T11:30:32;3.50;;;3.20;;
3359;SDS011;1693;49.602;11.046;2022-11-14T11:33:13;5.90;;;3.03;;
3359;SDS011;1693;49.602;11.046;2022-11-14T11:35:44;3.80;;;3.40;;
3359;SDS011;1693;49.602;11.046;2022-11-14T11:38:19;4.20;;;3.57;;
3359;SDS011;1693;49.602;11.046;2022-11-14T11:40:49;3.00;;;2.70;;
3359;SDS011;1693;49.602;11.046;2022-11-14T11:43:30;2.67;;;2.47;;
3359;SDS011;1693;49.602;11.046;2022-11-14T11:46:07;2.93;;;2.57;;
3359;SDS011;1693;49.602;11.046;2022-11-14T11:48:46;3.57;;;2.77;;
3359;SDS011;1693;49.602;11.046;2022-11-14T11:52:00;4.10;;;3.50;;
3359;SDS011;1693;49.602;11.046;2022-11-14T11:55:02;4.30;;;3.33;;
3359;SDS011;1693;49.602;11.046;2022-11-14T11:57:41;3.37;;;3.07;;
3359;SDS011;1693;49.602;11.046;2022-11-14T12:00:13;4.37;;;3.30;;
3359;SDS011;1693;49.602;11.046;2022-11-14T12:02:44;3.73;;;3.37;;
3359;SDS011;1693;49.602;11.046;2022-11-14T12:05:14;5.40;;;3.60;;
3359;SDS011;1693;49.602;11.046;2022-11-14T12:07:43;4.70;;;3.40;;
3359;SDS011;1693;49.602;11.046;2022-11-14T12:10:19;4.03;;;3.30;;
3359;SDS011;1693;49.602;11.046;2022-11-14T12:16:01;4.67;;;3.40;;
3359;SDS011;1693;49.602;11.046;2022-11-14T12:18:38;4.10;;;3.20;;
3359;SDS011;1693;49.602;11.046;2022-11-14T12:21:37;4.13;;;3.43;;
3359;SDS011;1693;49.602;11.046;2022-11-14T12:24:30;4.57;;;3.90;;
3359;SDS011;1693;49.602;11.046;2022-11-14T12:27:28;4.10;;;3.37;;
3359;SDS011;1693;49.602;11.046;2022-11-14T12:36:36;4.20;;;3.37;;
3359;SDS011;1693;49.602;11.046;2022-11-14T12:39:21;4.80;;;3.37;;
3359;SDS011;1693;49.602;11.046;2022-11-14T12:42:04;4.77;;;4.30;;
3359;SDS011;1693;49.602;11.046;2022-11-14T12:44:48;4.70;;;4.00;;
3359;SDS011;1693;49.602;11.046;2022-11-14T12:47:29;4.07;;;3.30;;
3359;SDS011;1693;49.602;11.046;2022-11-14T12:50:29;4.17;;;3.43;;
3359;SDS011;1693;49.602;11.046;2022-11-14T12:59:38;4.27;;;3.67;;
3359;SDS011;1693;49.602;11.046;2022-11-14T13:09:07;6.60;;;5.63;;
3359;SDS011;1693;49.602;11.046;2022-11-14T13:12:25;7.13;;;4.10;;
3359;SDS011;1693;49.602;11.046;2022-11-14T13:28:44;3.73;;;3.43;;
3359;SDS011;1693;49.602;11.046;2022-11-14T13:31:41;4.20;;;3.50;;
3359;SDS011;1693;49.602;11.046;2022-11-14T13:34:27;4.30;;;3.53;;
3359;SDS011;1693;49.602;11.046;2022-11-14T13:37:20;6.13;;;3.63;;
3359;SDS011;1693;49.602;11.046;2022-11-14T13:40:16;4.27;;;3.40;;
3359;SDS011;1693;49.602;11.046;2022-11-14T13:53:02;5.40;;;3.87;;
3359;SDS011;1693;49.602;11.046;2022-11-14T14:06:27;4.20;;;2.63;;
3359;SDS011;1693;49.602;11.046;2022-11-14T14:09:09;4.00;;;3.60;;
3359;SDS011;1693;49.602;11.046;2022-11-14T14:12:11;2.50;;;2.30;;
